dimanche 8 juin 2014

ALERTE SPOTTING 08/06/14 (MàJ 05h00)

320 F-GHQE Air Corsica (blanc avec titre)
   XK4511/XK757  07h35/08h25
  XK756/XK4512  12h30/13h35

32A EC-LVP Vueling (sticker Linking Europe)
      dpt VY1983  07h00
    VY1984/VY1985  12h10/12h45
   VY1986/VY8029 17h25/18h15
 VY8028 22h10
   
320 blanc G-POWI
   U24242/U24243 09H30/10h00

IL9 CU-T1251 Cubana
   CU444/CU445  12h35/15h05

Manque les prévisions de certains AB/AH/AZ/BA/BE/IB/KM/TP/TU

*** Horaires en Heure Locale ***
Prévisions matinales soumises à modifications de dernières minutes.

Voir le log du mois pour la version 'définitive' de la journée: 
 http://www.airkalo.com/ORLYAVIATION/Logdumois.html

le TAF de la journée:


METAR: LFPO 080230Z 06005KT 010V110 8000 RA FEW033CB BKN100 17/15
Q1018 RETS TEMPO 2000 TSRA SCT040CB=
TAF LONG: LFPO 072300Z 0800/0906 35007KT CAVOK
TEMPO 0800/0807 36015G25KT 4000 SHRA SCT035TCU BKN080
PROB40 TEMPO 0800/0803 36020G35KT 2000 -TSRA BKN030CB
PROB40 TEMPO 0816/0824 04015G30KT 3000 -TSRA SCT030CB BKN050=